Time;durP1;ratioP1;P1;durP2;ratioP2;P2;SDS_P1;SDS_P2;PMS_P1;PMS_P2;Temp;Humidity;BMP_temperature;BMP_pressure;BME280_temperature;BME280_humidity;BME280_pressure;Samples;Min_cycle;Max_cycle;Signal;HPM_P1;HPM_P2
2022/03/21 00:02:57;;;;;;;10.77;6.75;;;;;;;2.95;28.87;102156.81;7708861;32;40119;-78
2022/03/21 00:07:13;;;;;;;11.98;6.95;;;;;;;2.89;29.28;102156.63;7709244;32;40863;-77
2022/03/21 00:11:31;;;;;;;12.88;7.22;;;;;;;2.66;29.26;102153.66;7709394;32;38749;-79
2022/03/21 00:15:48;;;;;;;13.77;6.93;;;;;;;2.99;32.07;102152.78;7710775;32;38507;-78
2022/03/21 00:20:06;;;;;;;11.77;6.45;;;;;;;2.70;30.00;102155.87;7710639;32;40005;-79
2022/03/21 00:24:22;;;;;;;11.20;6.80;;;;;;;2.80;29.77;102153.06;7710299;32;40108;-78
2022/03/21 00:28:38;;;;;;;9.63;6.07;;;;;;;2.52;30.04;102152.41;7710537;32;38794;-78
2022/03/21 00:32:54;;;;;;;9.18;6.40;;;;;;;2.37;30.45;102152.19;7696916;32;37079;-79
2022/03/21 00:37:12;;;;;;;9.88;6.07;;;;;;;2.51;30.29;102156.94;7709527;32;39383;-79
2022/03/21 00:41:31;;;;;;;11.98;6.97;;;;;;;2.33;30.29;102156.16;7696302;32;40816;-79
2022/03/21 00:45:52;;;;;;;14.52;7.25;;;;;;;2.03;31.15;102151.09;7710205;32;37936;-79
2022/03/21 00:50:10;;;;;;;13.23;7.47;;;;;;;2.38;30.52;102145.78;7710283;32;37212;-79
2022/03/21 00:54:27;;;;;;;13.88;7.10;;;;;;;2.17;30.97;102149.69;7709497;32;40069;-79
2022/03/21 00:58:43;;;;;;;11.05;6.93;;;;;;;2.00;31.78;102153.28;7709809;32;40008;-79
2022/03/21 01:03:00;;;;;;;13.27;7.28;;;;;;;2.13;31.06;102142.94;7709684;32;38033;-79
2022/03/21 01:07:17;;;;;;;14.32;6.62;;;;;;;2.13;31.01;102145.63;7709670;32;37534;-79
2022/03/21 01:11:33;;;;;;;12.88;6.90;;;;;;;2.07;31.35;102140.91;7709669;32;39287;-79
2022/03/21 01:15:49;;;;;;;14.68;7.75;;;;;;;1.94;31.56;102140.47;7709463;32;39711;-79
2022/03/21 01:20:06;;;;;;;13.95;7.32;;;;;;;1.82;32.37;102140.72;7709341;32;37575;-79
2022/03/21 01:24:22;;;;;;;12.65;7.43;;;;;;;1.73;32.98;102138.97;7695179;32;37131;-78
2022/03/21 01:28:39;;;;;;;11.65;7.47;;;;;;;1.72;33.27;102139.94;7709254;32;39852;-78
2022/03/21 01:32:55;;;;;;;11.85;7.03;;;;;;;1.65;33.06;102136.19;7708938;32;40604;-78
2022/03/21 01:37:11;;;;;;;12.32;6.25;;;;;;;1.68;32.82;102133.22;7708672;32;37850;-79
2022/03/21 01:41:27;;;;;;;11.00;6.53;;;;;;;1.82;32.19;102132.63;7708842;32;38121;-79
2022/03/21 01:45:43;;;;;;;10.05;6.70;;;;;;;1.97;32.02;102129.41;7708651;32;39342;-79
2022/03/21 01:50:00;;;;;;;14.20;7.47;;;;;;;2.13;31.81;102134.87;7709922;32;39953;-79
2022/03/21 01:58:50;;;;;;;10.75;6.68;;;;;;;1.92;32.35;102129.03;7712504;32;37980;-79
2022/03/21 02:03:06;;;;;;;11.15;7.10;;;;;;;2.02;32.29;102117.16;7712389;32;39306;-78
2022/03/21 02:07:25;;;;;;;12.50;7.07;;;;;;;1.93;32.39;102125.31;7712401;32;40099;-79
2022/03/21 02:11:41;;;;;;;10.35;6.62;;;;;;;1.98;31.62;102123.00;7698724;32;37894;-78
2022/03/21 02:15:58;;;;;;;10.93;6.78;;;;;;;1.75;31.67;102122.69;7712148;32;37680;-78
2022/03/21 02:20:18;;;;;;;10.40;7.05;;;;;;;1.83;31.84;102130.81;7712142;32;39378;-78
2022/03/21 02:24:40;;;;;;;9.77;6.15;;;;;;;1.67;32.20;102120.75;7730484;32;39735;-78
2022/03/21 02:28:57;;;;;;;11.45;6.95;;;;;;;1.61;31.99;102121.37;7738907;32;37881;-79
2022/03/21 02:33:15;;;;;;;10.77;6.82;;;;;;;1.49;32.03;102128.84;7725185;32;36768;-79
2022/03/21 02:37:31;;;;;;;12.90;7.37;;;;;;;1.41;32.12;102131.47;7738828;32;39875;-78
2022/03/21 02:41:49;;;;;;;11.95;6.97;;;;;;;1.26;33.25;102123.94;7724877;32;40247;-78
2022/03/21 02:46:08;;;;;;;14.90;7.28;;;;;;;1.29;32.54;102133.53;7738578;32;37830;-78
2022/03/21 02:50:45;;;;;;;11.05;6.80;;;;;;;1.16;33.62;102125.84;7738688;32;37125;-79
2022/03/21 02:55:01;;;;;;;12.35;7.07;;;;;;;1.31;32.39;102123.47;7716175;32;40135;-78
2022/03/21 02:59:18;;;;;;;16.23;7.30;;;;;;;1.30;32.12;102121.78;7711735;32;39957;-79
2022/03/21 03:03:34;;;;;;;11.00;6.35;;;;;;;1.05;32.51;102121.56;7710580;32;37755;-79
2022/03/21 03:07:50;;;;;;;10.02;6.30;;;;;;;1.16;33.64;102117.78;7711843;32;37343;-79
2022/03/21 03:12:08;;;;;;;12.65;7.18;;;;;;;1.30;33.60;102119.94;7711645;32;40027;-78
2022/03/21 03:16:24;;;;;;;12.77;7.50;;;;;;;1.26;34.08;102110.50;7697734;32;41032;-78
2022/03/21 03:20:59;;;;;;;10.60;6.62;;;;;;;1.38;32.81;102112.94;7711591;32;38750;-79
2022/03/21 03:25:15;;;;;;;12.18;6.37;;;;;;;1.17;32.74;102119.47;7711206;32;36923;-79
2022/03/21 03:29:31;;;;;;;12.90;6.70;;;;;;;1.00;32.55;102114.91;7711504;32;39062;-79
2022/03/21 03:33:47;;;;;;;12.50;7.15;;;;;;;1.09;32.58;102108.66;7711358;32;39479;-79
2022/03/21 03:38:04;;;;;;;10.05;6.85;;;;;;;1.18;32.57;102109.59;7711502;32;37954;-79
2022/03/21 03:42:20;;;;;;;14.27;6.82;;;;;;;1.39;32.24;102107.41;7711259;32;37623;-79
2022/03/21 03:46:37;;;;;;;12.50;7.45;;;;;;;1.19;32.34;102106.75;7697389;32;40183;-79
2022/03/21 03:50:53;;;;;;;11.95;7.03;;;;;;;1.07;32.47;102106.12;7711123;32;39896;-79
2022/03/21 03:55:09;;;;;;;11.98;7.12;;;;;;;1.00;32.68;102109.56;7710653;32;37875;-79
2022/03/21 03:59:25;;;;;;;13.35;7.50;;;;;;;1.20;32.42;102112.94;7710847;32;37989;-78
2022/03/21 04:03:44;;;;;;;14.07;6.82;;;;;;;0.93;32.84;102123.59;7710803;32;40076;-79
2022/03/21 04:08:00;;;;;;;15.63;7.45;;;;;;;0.96;33.11;102117.06;7710873;32;40855;-79
2022/03/21 04:12:17;;;;;;;15.77;7.68;;;;;;;0.88;33.09;102128.59;7710571;32;38024;-79
2022/03/21 04:16:33;;;;;;;11.32;7.18;;;;;;;0.98;33.06;102119.59;7710917;32;37043;-79
2022/03/21 04:20:50;;;;;;;11.43;7.43;;;;;;;1.06;32.89;102117.00;7710721;32;39248;-79
2022/03/21 04:25:10;;;;;;;11.60;7.30;;;;;;;1.05;32.73;102121.56;7710322;32;40091;-79
2022/03/21 04:29:29;;;;;;;11.90;7.95;;;;;;;1.07;32.99;102114.19;7710481;32;38612;-79
2022/03/21 04:33:45;;;;;;;11.35;7.18;;;;;;;1.26;32.72;102120.38;7710594;32;37817;-78
2022/03/21 04:38:01;;;;;;;12.95;7.35;;;;;;;1.16;32.68;102133.09;7710475;32;38938;-79
2022/03/21 04:42:17;;;;;;;14.68;8.45;;;;;;;1.20;32.76;102121.00;7710169;32;40022;-79
2022/03/21 04:46:33;;;;;;;13.15;7.30;;;;;;;1.18;32.94;102120.31;7696244;32;37912;-79
2022/03/21 04:50:51;;;;;;;13.32;7.68;;;;;;;1.00;33.12;102129.22;7710069;32;36926;-79
2022/03/21 04:55:10;;;;;;;16.60;8.10;;;;;;;0.84;33.68;102132.53;7731724;32;39305;-79
2022/03/21 04:59:30;;;;;;;;;;;;;;;0.64;34.52;102141.69;7736909;32;40092;-78
2022/03/21 05:03:46;;;;;;;14.55;7.60;;;;;;;0.94;34.13;102140.56;7736608;32;38842;-78
2022/03/21 05:08:03;;;;;;;14.20;7.97;;;;;;;1.07;33.96;102135.66;7736290;32;37898;-79
2022/03/21 05:12:20;;;;;;;12.80;8.00;;;;;;;0.93;34.44;102141.53;7736125;32;40201;-79
2022/03/21 05:16:36;;;;;;;13.43;8.00;;;;;;;0.91;34.43;102138.16;7736051;32;40046;-78
2022/03/21 05:20:53;;;;;;;13.50;7.90;;;;;;;1.02;34.05;102142.47;7735959;32;38765;-79
2022/03/21 05:38:54;;;;;;;13.55;7.80;;;;;;;1.44;33.07;102152.66;7712723;32;37813;-79
2022/03/21 05:43:10;;;;;;;14.55;8.70;;;;;;;1.58;32.95;102152.09;7712534;32;37097;-79
2022/03/21 05:47:26;;;;;;;15.68;8.13;;;;;;;1.62;33.17;102155.31;7712570;32;40003;-79
2022/03/21 05:51:42;;;;;;;11.88;7.87;;;;;;;1.55;33.31;102148.87;7715185;32;39936;-78
2022/03/21 05:56:00;;;;;;;12.32;8.07;;;;;;;1.77;32.50;102145.72;7739223;32;38664;-79
2022/03/21 06:00:22;;;;;;;24.40;8.68;;;;;;;1.76;32.65;102148.56;7739375;32;37353;-78
2022/03/21 06:04:38;;;;;;;12.50;8.07;;;;;;;1.87;32.65;102157.22;7739192;32;39987;-78
2022/03/21 06:08:54;;;;;;;17.42;9.35;;;;;;;2.08;32.29;102160.56;7716464;32;39918;-79
2022/03/21 06:13:10;;;;;;;11.85;7.85;;;;;;;2.05;31.62;102161.72;7712261;32;38672;-79
2022/03/21 06:17:26;;;;;;;15.13;7.93;;;;;;;2.28;31.22;102163.88;7712159;32;37867;-79
2022/03/21 06:21:42;;;;;;;11.68;7.72;;;;;;;2.42;31.64;102156.06;7715089;32;40010;-79
2022/03/21 06:25:58;;;;;;;15.63;8.13;;;;;;;2.58;31.24;102168.75;7738795;32;39840;-79
2022/03/21 06:30:14;;;;;;;13.98;7.32;;;;;;;2.61;31.30;102173.00;7738801;32;38756;-79
2022/03/21 06:34:30;;;;;;;12.68;7.70;;;;;;;2.73;30.64;102170.88;7738717;32;37976;-78
2022/03/21 06:38:46;;;;;;;13.32;7.53;;;;;;;2.99;30.12;102162.72;7738868;32;39491;-82
2022/03/21 06:43:03;;;;;;;20.58;8.13;;;;;;;3.50;36.88;102168.03;7738736;32;40797;-78
2022/03/21 06:47:19;;;;;;;13.57;7.22;;;;;;;3.87;30.94;102172.13;7738719;32;39010;-79
2022/03/21 06:51:35;;;;;;;15.23;7.90;;;;;;;4.03;30.80;102164.00;7737269;32;37419;-80
2022/03/21 06:55:51;;;;;;;23.60;9.38;;;;;;;3.93;31.62;102175.00;7738515;32;39443;-78
2022/03/21 07:00:09;;;;;;;23.00;12.57;;;;;;;4.17;31.46;102169.72;7738613;32;41029;-79
2022/03/21 07:04:26;;;;;;;22.98;11.25;;;;;;;4.36;31.02;102173.91;7738117;32;38036;-78
2022/03/21 07:08:42;;;;;;;29.20;13.15;;;;;;;4.77;29.81;102169.22;7738668;32;37244;-76
2022/03/21 07:13:07;;;;;;;25.92;12.57;;;;;;;4.98;29.71;102173.19;7738408;32;40305;-74
2022/03/21 07:17:23;;;;;;;18.90;9.82;;;;;;;5.02;29.53;102169.13;7739730;32;39824;-76
2022/03/21 07:21:39;;;;;;;18.15;9.88;;;;;;;5.61;28.00;102168.59;7737172;32;37849;-78
2022/03/21 07:25:55;;;;;;;19.85;9.45;;;;;;;5.76;26.94;102165.91;7738275;32;37979;-78
2022/03/21 07:30:13;;;;;;;13.32;8.23;;;;;;;5.68;27.80;102176.81;7738279;32;39466;-78
2022/03/21 07:34:29;;;;;;;13.13;7.93;;;;;;;6.23;26.23;102166.69;7738219;32;39878;-78
2022/03/21 07:38:45;;;;;;;15.88;8.50;;;;;;;6.44;26.33;102174.12;7738015;32;38985;-79
2022/03/21 07:43:01;;;;;;;14.63;8.50;;;;;;;6.63;24.94;102168.13;7738035;32;37859;-78
2022/03/21 07:47:17;;;;;;;18.15;8.55;;;;;;;6.98;24.61;102173.78;7737178;32;39002;-77
2022/03/21 07:51:33;;;;;;;15.05;8.68;;;;;;;7.14;24.54;102170.88;7734096;32;40931;-81
2022/03/21 07:55:49;;;;;;;15.90;8.60;;;;;;;6.80;24.52;102173.38;7710607;32;38798;-80
2022/03/21 08:00:09;;;;;;;17.17;9.32;;;;;;;7.40;23.67;102166.78;7710768;32;37357;-80
2022/03/21 08:04:25;;;;;;;14.18;8.55;;;;;;;7.98;24.35;102168.56;7710420;32;39375;-81
2022/03/21 08:08:41;;;;;;;16.02;8.55;;;;;;;8.00;22.68;102170.06;7710238;32;40911;-80
2022/03/21 08:12:57;;;;;;;18.60;9.13;;;;;;;7.87;22.56;102170.78;7710450;32;38472;-80
2022/03/21 08:17:13;;;;;;;19.12;9.90;;;;;;;8.50;22.89;102171.91;7710427;32;37716;-80
2022/03/21 08:21:29;;;;;;;16.00;9.77;;;;;;;8.56;20.92;102158.34;7709028;32;39264;-79
2022/03/21 08:25:46;;;;;;;17.12;10.05;;;;;;;9.06;21.04;102162.78;7710615;32;39795;-80
2022/03/21 08:30:03;;;;;;;13.55;8.20;;;;;;;9.45;19.69;102158.47;7710431;32;37685;-81
2022/03/21 08:34:19;;;;;;;17.58;9.32;;;;;;;9.73;19.81;102148.25;7709876;32;37740;-79
2022/03/21 08:38:35;;;;;;;16.60;9.35;;;;;;;10.03;18.53;102141.53;7710275;32;39083;-79
2022/03/21 08:42:51;;;;;;;17.17;9.27;;;;;;;10.11;18.92;102139.44;7710072;32;39692;-79
2022/03/21 08:47:07;;;;;;;15.98;8.65;;;;;;;10.36;19.05;102132.50;7709580;32;38531;-81
2022/03/21 08:51:24;;;;;;;17.75;8.63;;;;;;;10.41;18.63;102133.53;7708244;32;37242;-77
2022/03/21 08:55:40;;;;;;;17.37;8.73;;;;;;;10.95;20.75;102127.91;7735509;32;39355;-79
2022/03/21 08:59:56;;;;;;;17.98;8.10;;;;;;;11.19;17.89;102127.16;7737243;32;39875;-79
2022/03/21 09:04:12;;;;;;;20.00;8.85;;;;;;;11.52;17.56;102127.97;7739861;32;37865;-80
2022/03/21 09:08:29;;;;;;;19.48;8.77;;;;;;;11.97;18.07;102114.19;7739212;32;38286;-81
2022/03/21 09:12:45;;;;;;;17.98;8.88;;;;;;;12.29;17.22;102114.94;7738371;32;39305;-80
2022/03/21 09:17:02;;;;;;;15.00;8.18;;;;;;;12.33;16.48;102107.97;7739788;32;41178;-79
2022/03/21 09:21:18;;;;;;;13.82;8.13;;;;;;;12.42;16.45;102105.75;7738493;32;38051;-80
2022/03/21 09:25:34;;;;;;;15.45;8.50;;;;;;;11.72;17.30;102105.97;7739409;32;37123;-80
2022/03/21 09:29:50;;;;;;;16.77;8.90;;;;;;;12.59;16.78;102090.41;7739282;32;39320;-79
2022/03/21 09:34:11;;;;;;;15.40;8.82;;;;;;;12.81;16.53;102103.59;7738609;32;40077;-81
2022/03/21 09:38:27;;;;;;;18.20;8.57;;;;;;;12.76;16.36;102095.22;7738799;32;38455;-80
2022/03/21 09:42:44;;;;;;;16.45;8.93;;;;;;;13.32;15.90;102094.06;7739443;32;37543;-80
2022/03/21 09:48:08;;;;;;;15.15;8.48;;;;;;;13.71;16.11;102090.91;7725738;32;39362;-80
2022/03/21 09:51:40;;;;;;;15.55;8.40;;;;;;;14.02;14.84;102086.16;7722285;32;40208;-80
2022/03/21 09:55:57;;;;;;;16.05;8.70;;;;;;;13.82;15.17;102090.09;7711934;32;37970;-81
2022/03/21 10:00:13;;;;;;;18.45;10.02;;;;;;;13.52;16.00;102088.28;7712192;32;37612;-81
2022/03/21 10:04:30;;;;;;;14.70;9.20;;;;;;;14.31;15.19;102084.34;7711617;32;40038;-80
2022/03/21 10:08:47;;;;;;;15.82;9.02;;;;;;;14.72;15.01;102078.91;7711921;32;40038;-80
2022/03/21 10:13:03;;;;;;;15.55;8.98;;;;;;;15.03;14.89;102074.84;7711578;32;37936;-80
2022/03/21 10:17:22;;;;;;;15.57;8.48;;;;;;;15.53;14.27;102062.25;7712184;32;37145;-81
2022/03/21 10:21:38;;;;;;;14.75;8.98;;;;;;;15.77;12.90;102052.78;7698155;32;39326;-80
2022/03/21 10:25:54;;;;;;;18.02;8.90;;;;;;;16.05;14.31;102059.22;7711705;32;40836;-80
2022/03/21 10:30:15;;;;;;;16.65;9.63;;;;;;;16.40;13.62;102049.81;7710852;32;38307;-80
2022/03/21 10:34:34;;;;;;;15.40;8.63;;;;;;;16.35;12.74;102044.25;7711902;32;37031;-81
2022/03/21 10:39:05;;;;;;;14.27;8.38;;;;;;;16.95;12.39;102038.88;7699700;32;38668;-82
2022/03/21 10:43:21;;;;;;;19.52;8.10;;;;;;;16.01;13.40;102033.31;7711857;32;40761;-81
2022/03/21 10:47:52;;;;;;;14.68;7.65;;;;;;;16.77;12.08;102018.84;7713646;32;37654;-80
2022/03/21 10:52:14;;;;;;;19.12;8.93;;;;;;;16.46;12.06;102025.91;7713598;32;37183;-81
2022/03/21 10:56:39;;;;;;;13.80;8.30;;;;;;;17.02;11.52;102006.44;7710920;32;39415;-82
2022/03/21 11:01:08;;;;;;;16.17;7.87;;;;;;;16.86;12.48;102010.97;7698096;32;40782;-83
2022/03/21 11:05:26;;;;;;;14.07;8.10;;;;;;;17.62;11.35;101999.75;7679783;32;38042;-82
2022/03/21 11:09:42;;;;;;;11.57;7.35;;;;;;;17.97;11.78;101984.53;7685078;32;37145;-81
2022/03/21 11:13:58;;;;;;;15.07;8.05;;;;;;;17.83;11.94;101994.34;7685057;32;39620;-81
2022/03/21 11:18:14;;;;;;;18.48;8.95;;;;;;;17.70;11.59;101986.56;7708765;32;40810;-82
2022/03/21 11:22:32;;;;;;;13.27;8.10;;;;;;;18.77;11.03;101983.41;7696737;32;37989;-81
2022/03/21 11:27:12;;;;;;;24.70;8.70;;;;;;;19.41;10.50;101962.72;7711491;32;37099;-82
2022/03/21 11:31:57;;;;;;;15.85;8.57;;;;;;;18.86;10.82;101972.69;7699431;32;39300;-83
2022/03/21 11:36:14;;;;;;;15.73;9.55;;;;;;;19.42;10.19;101969.06;7698652;32;39966;-82
2022/03/21 11:40:38;;;;;;;15.30;8.57;;;;;;;19.14;9.93;101963.88;7711025;32;38798;-81
2022/03/21 11:45:25;;;;;;;22.65;11.20;;;;;;;19.07;10.83;101962.47;7711252;32;37265;-81
2022/03/21 11:49:42;;;;;;;26.40;12.60;;;;;;;20.32;10.04;101943.34;7711236;32;40503;-81
2022/03/21 11:53:58;;;;;;;17.67;8.98;;;;;;;20.20;9.42;101946.47;7710421;32;39901;-81
2022/03/21 11:58:23;;;;;;;16.48;8.63;;;;;;;20.47;9.66;101938.81;7710727;32;38643;-80
2022/03/21 12:02:55;;;;;;;16.60;8.07;;;;;;;20.22;9.60;101937.88;7711015;32;37895;-80
2022/03/21 12:07:14;;;;;;;13.93;7.33;;;;;;;20.02;9.19;101924.94;7710894;32;40170;-80
2022/03/21 12:11:39;;;;;;;11.82;7.18;;;;;;;20.18;9.87;101923.75;7710626;32;41013;-79
2022/03/21 12:15:55;;;;;;;15.40;8.18;;;;;;;20.01;8.84;101921.34;7710450;32;38484;-80
2022/03/21 12:20:12;;;;;;;18.35;7.72;;;;;;;20.82;8.74;101899.00;7710579;32;36866;-81
2022/03/21 12:24:49;;;;;;;12.55;7.12;;;;;;;21.24;8.30;101891.13;7710150;32;40104;-79
2022/03/21 12:29:33;;;;;;;15.27;7.80;;;;;;;20.78;7.87;101884.87;7710505;32;40018;-79
2022/03/21 12:33:49;;;;;;;16.40;7.62;;;;;;;21.07;8.03;101877.69;7700085;32;38656;-83
2022/03/21 12:38:10;;;;;;;13.10;7.72;;;;;;;21.62;8.83;101874.63;7710361;32;37175;-82
2022/03/21 12:42:28;;;;;;;14.40;7.15;;;;;;;21.95;8.13;101870.03;7710149;32;39293;-81
2022/03/21 12:46:56;;;;;;;12.60;7.10;;;;;;;22.29;7.82;101866.25;7696608;32;39885;-81
2022/03/21 12:51:13;;;;;;;15.32;6.55;;;;;;;22.18;8.17;101853.59;7709706;32;37871;-81
2022/03/21 12:55:29;;;;;;;12.60;7.25;;;;;;;21.84;7.92;101860.19;7733975;32;36822;-77
2022/03/21 12:59:45;;;;;;;19.85;7.30;;;;;;;21.66;7.12;101857.09;7736488;32;39838;-82
2022/03/21 13:13:16;;;;;;;12.27;6.53;;;;;;;20.69;9.17;101845.03;7682899;32;37364;-79
2022/03/21 13:17:46;;;;;;;13.15;6.70;;;;;;;21.21;8.47;101845.34;7682839;32;39301;-80
2022/03/21 13:22:05;;;;;;;12.52;6.87;;;;;;;20.50;8.67;101836.56;7691472;32;39950;-78
2022/03/21 13:26:23;;;;;;;11.12;6.72;;;;;;;20.95;8.67;101828.97;7710087;32;37856;-76
2022/03/21 13:30:59;;;;;;;11.95;6.90;;;;;;;21.07;7.93;101830.56;7725362;32;37085;-77
2022/03/21 13:35:15;;;;;;;11.63;6.65;;;;;;;21.06;8.26;101829.72;7735173;32;39856;-77
2022/03/21 13:39:32;;;;;;;13.23;7.25;;;;;;;21.03;7.50;101824.78;7735308;32;39619;-80
2022/03/21 13:44:02;;;;;;;13.95;7.55;;;;;;;21.07;7.31;101831.38;7735261;32;38586;-80
2022/03/21 13:48:42;;;;;;;24.05;8.07;;;;;;;20.73;7.67;101812.87;7738219;32;37185;-77
2022/03/21 13:53:01;;;;;;;11.73;6.97;;;;;;;20.72;7.68;101807.63;7702276;32;39152;-78
2022/03/21 13:57:18;;;;;;;13.25;7.50;;;;;;;20.42;8.45;101810.34;7712040;32;39794;-78
2022/03/21 14:01:34;;;;;;;14.87;7.30;;;;;;;21.09;8.14;101803.34;7712133;32;37812;-82
2022/03/21 14:05:56;;;;;;;12.02;7.30;;;;;;;21.47;6.99;101798.78;7711838;32;37234;-78
2022/03/21 14:10:14;;;;;;;14.48;7.57;;;;;;;20.97;7.04;101776.88;7712180;32;40012;-79
2022/03/21 14:14:31;;;;;;;14.10;7.82;;;;;;;21.73;7.61;101777.06;7711760;32;40024;-79
2022/03/21 14:18:53;;;;;;;11.88;7.10;;;;;;;21.14;8.07;101781.91;7711569;32;38580;-79
2022/03/21 14:23:09;;;;;;;12.32;7.93;;;;;;;21.86;7.60;101774.66;7711883;32;37878;-80
2022/03/21 14:27:25;;;;;;;12.95;6.93;;;;;;;21.73;7.29;101760.41;7697817;32;39362;-78
2022/03/21 14:31:42;;;;;;;10.88;6.60;;;;;;;22.00;7.70;101763.62;7711817;32;40963;-78
2022/03/21 14:35:58;;;;;;;11.65;6.93;;;;;;;22.41;7.17;101749.09;7711743;32;38825;-77
2022/03/21 14:40:17;;;;;;;12.85;7.20;;;;;;;21.89;7.03;101762.97;7711409;32;38085;-78
2022/03/21 14:44:33;;;;;;;14.90;7.28;;;;;;;21.69;7.26;101753.78;7711744;32;39097;-78
2022/03/21 14:48:50;;;;;;;14.35;7.30;;;;;;;22.16;7.12;101744.75;7711203;32;40714;-77
2022/03/21 14:53:05;;;;;;;11.32;6.70;;;;;;;21.91;7.38;101744.84;7720054;32;38934;-79
2022/03/21 14:57:21;;;;;;;11.00;7.03;;;;;;;21.59;7.33;101747.56;7734875;32;37154;-79
2022/03/21 15:01:37;;;;;;;15.35;7.30;;;;;;;21.94;7.18;101741.47;7737365;32;40114;-78
2022/03/21 15:05:54;;;;;;;11.38;6.65;;;;;;;21.69;7.54;101737.12;7738189;32;39940;-78
2022/03/21 15:10:26;;;;;;;17.37;7.97;;;;;;;21.65;6.90;101736.09;7737674;32;38569;-78
2022/03/21 15:14:42;;;;;;;14.20;6.85;;;;;;;21.34;7.32;101728.16;7737867;32;37944;-78
2022/03/21 15:18:58;;;;;;;14.32;7.40;;;;;;;21.43;8.17;101728.31;7724323;32;39300;-78
2022/03/21 15:23:15;;;;;;;14.73;7.72;;;;;;;21.65;7.71;101730.53;7718239;32;40835;-78
2022/03/21 15:27:31;;;;;;;12.30;7.22;;;;;;;21.03;8.29;101733.28;7711115;32;37850;-79
2022/03/21 15:31:47;;;;;;;14.77;7.53;;;;;;;20.73;8.15;101724.19;7710846;32;36909;-79
2022/03/21 15:45:18;;;;;;;16.02;7.22;;;;;;;20.81;8.10;101715.19;7694209;32;38383;-79
2022/03/21 15:49:34;;;;;;;11.82;7.47;;;;;;;20.38;8.27;101717.00;7710770;32;37191;-79
2022/03/21 15:53:50;;;;;;;15.23;7.65;;;;;;;20.40;8.35;101717.53;7733816;32;39471;-78
2022/03/21 15:58:06;;;;;;;12.27;7.40;;;;;;;19.98;8.13;101714.28;7722809;32;40034;-78
2022/03/21 16:02:22;;;;;;;12.55;7.47;;;;;;;20.49;8.31;101714.97;7683482;32;37976;-77
2022/03/21 16:06:39;;;;;;;12.00;7.22;;;;;;;20.53;8.44;101716.88;7683619;32;37384;-78
2022/03/21 16:10:55;;;;;;;15.75;8.05;;;;;;;21.76;7.10;101718.16;7683028;32;39335;-77
2022/03/21 16:15:15;;;;;;;11.07;7.07;;;;;;;20.94;8.01;101719.22;7683469;32;39912;-78
2022/03/21 16:19:31;;;;;;;12.18;7.20;;;;;;;22.46;7.08;101715.66;7692816;32;37888;-78
2022/03/21 16:23:47;;;;;;;10.88;7.07;;;;;;;23.57;6.43;101722.03;7710103;32;37811;-78
2022/03/21 16:28:04;;;;;;;15.27;7.40;;;;;;;24.30;6.00;101729.50;7710211;32;39373;-78
2022/03/21 16:32:21;;;;;;;12.77;7.50;;;;;;;24.43;6.02;101723.03;7709537;32;40718;-77
2022/03/21 16:36:38;;;;;;;14.80;7.85;;;;;;;24.24;6.19;101726.03;7709708;32;38609;-80
2022/03/21 16:40:56;;;;;;;14.63;7.10;;;;;;;24.00;6.28;101720.78;7709902;32;37900;-80
2022/03/21 16:45:13;;;;;;;16.60;7.47;;;;;;;23.17;6.98;101735.72;7709442;32;40116;-78
2022/03/21 16:49:29;;;;;;;13.13;7.20;;;;;;;22.26;7.52;101730.69;7735365;32;40011;-79
2022/03/21 16:53:48;;;;;;;11.57;7.10;;;;;;;20.87;8.36;101731.78;7711497;32;38527;-80
2022/03/21 16:58:05;;;;;;;11.80;6.85;;;;;;;19.33;9.43;101742.06;7695924;32;37757;-80
2022/03/21 17:02:23;;;;;;;15.48;6.82;;;;;;;18.54;10.43;101738.94;7709404;32;39369;-80
2022/03/21 17:06:41;;;;;;;19.62;7.22;;;;;;;17.55;11.44;101745.44;7709088;32;38918;-80
2022/03/21 17:10:59;;;;;;;23.40;8.05;;;;;;;17.03;11.76;101749.09;7709353;32;38039;-80
2022/03/21 17:15:16;;;;;;;26.65;8.32;;;;;;;16.38;12.41;101748.34;7709118;32;37206;-80
2022/03/21 17:24:19;;;;;;;15.57;7.12;;;;;;;15.33;13.42;101765.94;7712450;32;40777;-80
2022/03/21 17:28:36;;;;;;;18.42;9.15;;;;;;;14.84;13.69;101758.44;7712157;32;37672;-79
2022/03/21 17:32:52;;;;;;;15.93;8.75;;;;;;;14.56;14.01;101756.63;7712395;32;38063;-78
2022/03/21 17:37:08;;;;;;;20.40;10.05;;;;;;;14.03;15.97;101765.06;7711839;32;39984;-77
2022/03/21 17:41:25;;;;;;;20.33;9.73;;;;;;;13.65;16.24;101769.28;7712678;32;37883;-78
2022/03/21 17:45:42;;;;;;;18.87;9.55;;;;;;;13.51;15.66;101776.97;7711436;32;37953;-77
2022/03/21 17:49:58;;;;;;;17.23;8.75;;;;;;;13.19;16.10;101775.69;7711807;32;37996;-77
2022/03/21 17:54:21;;;;;;;16.42;8.50;;;;;;;12.97;16.08;101770.84;7711657;32;40110;-75
2022/03/21 17:58:39;;;;;;;16.12;9.10;;;;;;;12.98;16.15;101772.50;7711971;32;41181;-75
2022/03/21 18:02:58;;;;;;;14.87;8.77;;;;;;;12.82;15.88;101775.97;7711717;32;38393;-79
2022/03/21 18:07:15;;;;;;;17.92;8.82;;;;;;;12.67;16.02;101780.00;7711843;32;37885;-78
2022/03/21 18:11:32;;;;;;;16.77;8.75;;;;;;;12.41;16.48;101781.28;7698422;32;39493;-78
2022/03/21 18:15:48;;;;;;;14.55;8.43;;;;;;;11.99;17.24;101795.00;7711258;32;39906;-79
2022/03/21 18:20:05;;;;;;;16.55;8.70;;;;;;;12.01;17.05;101796.41;7711331;32;38030;-78
2022/03/21 18:24:27;;;;;;;16.77;8.90;;;;;;;11.98;17.46;101799.59;7711730;32;37312;-78
2022/03/21 18:28:43;;;;;;;15.48;8.65;;;;;;;11.67;17.23;101810.72;7711632;32;39408;-79
2022/03/21 18:33:00;;;;;;;15.40;9.18;;;;;;;11.70;17.34;101813.00;7711734;32;40108;-79
2022/03/21 18:37:16;;;;;;;16.05;9.20;;;;;;;11.72;17.54;101816.34;7711154;32;38691;-78
2022/03/21 18:41:32;;;;;;;14.73;8.27;;;;;;;11.58;17.71;101805.56;7711693;32;37237;-79
2022/03/21 18:45:48;;;;;;;26.33;8.27;;;;;;;11.24;17.69;101821.50;7710721;32;40265;-78
2022/03/21 18:50:05;;;;;;;17.42;8.55;;;;;;;10.85;18.48;101823.59;7712977;32;40084;-80
2022/03/21 18:54:22;;;;;;;14.23;8.55;;;;;;;10.76;18.50;101822.19;7712096;32;38577;-79
2022/03/21 18:58:38;;;;;;;16.05;8.32;;;;;;;10.86;18.77;101814.31;7697434;32;37294;-80
2022/03/21 19:02:54;;;;;;;20.30;8.13;;;;;;;10.86;18.82;101827.16;7711870;32;39341;-77
2022/03/21 19:07:10;;;;;;;16.30;7.70;;;;;;;10.50;19.30;101825.97;7711587;32;40880;-78
2022/03/21 19:11:26;;;;;;;14.27;7.95;;;;;;;10.39;19.25;101824.81;7697814;32;38020;-77
2022/03/21 19:15:42;;;;;;;17.67;8.32;;;;;;;10.16;19.49;101830.81;7711446;32;37200;-77
2022/03/21 19:19:58;;;;;;;13.00;7.22;;;;;;;10.07;19.28;101822.06;7710909;32;39404;-76
2022/03/21 19:24:15;;;;;;;11.52;6.53;;;;;;;9.96;19.53;101829.00;7711013;32;40800;-77
2022/03/21 19:28:31;;;;;;;13.02;7.35;;;;;;;9.86;19.26;101841.44;7711066;32;38730;-76
2022/03/21 19:32:49;;;;;;;14.90;8.07;;;;;;;9.34;19.48;101842.25;7711240;32;36881;-77
2022/03/21 19:37:11;;;;;;;15.98;8.35;;;;;;;9.53;19.02;101845.12;7711350;32;39370;-77
2022/03/21 19:41:27;;;;;;;15.18;8.80;;;;;;;9.75;19.04;101840.25;7708171;32;39659;-77
2022/03/21 19:45:43;;;;;;;18.05;9.95;;;;;;;9.47;19.68;101851.44;7708349;32;38625;-78
2022/03/21 19:50:01;;;;;;;16.77;9.13;;;;;;;9.44;19.97;101849.97;7684419;32;38101;-77
2022/03/21 19:54:17;;;;;;;16.42;9.02;;;;;;;9.34;20.53;101849.59;7684305;32;40015;-77
2022/03/21 19:58:33;;;;;;;16.20;9.48;;;;;;;9.14;20.94;101849.63;7689974;32;40754;-77
2022/03/21 20:02:51;;;;;;;17.42;9.70;;;;;;;8.88;21.65;101859.47;7709778;32;38635;-77
2022/03/21 20:07:27;;;;;;;15.80;8.88;;;;;;;9.00;21.36;101849.66;7708125;32;37088;-77
2022/03/21 20:11:43;;;;;;;22.80;12.63;;;;;;;8.93;22.05;101854.25;7707834;32;39264;-77
2022/03/21 20:15:59;;;;;;;21.70;10.25;;;;;;;9.07;21.08;101854.25;7705038;32;39688;-77
2022/03/21 20:20:15;;;;;;;18.37;9.38;;;;;;;8.74;21.38;101855.09;7706263;32;38497;-76
2022/03/21 20:24:31;;;;;;;16.87;9.27;;;;;;;8.77;21.99;101865.56;7707745;32;37927;-77
2022/03/21 20:28:48;;;;;;;17.85;9.90;;;;;;;8.52;22.48;101858.03;7701443;32;39947;-77
2022/03/21 20:33:04;;;;;;;14.70;8.45;;;;;;;8.52;22.05;101868.91;7709180;32;40899;-77
2022/03/21 20:37:20;;;;;;;14.77;8.93;;;;;;;8.16;22.15;101870.06;7708980;32;37791;-77
2022/03/21 20:41:36;;;;;;;14.52;7.75;;;;;;;8.42;21.85;101871.16;7709104;32;37235;-78